Naginey, Pennsylvania
Current Conditions -  °F | °C
As of 11:35 PM on Wednesday 26 Nov 2014 (Local Time) from KUNV Reporting Station
Overcast Overcast  
Wind Chill: 31°   Ceiling: 4200
Heat Index: 31°   Visibility: 10mi
Dew Point: 28°   Wind: 0mph
Humidity: 87%   Direction: NA
Pressure: 29.96"   Gusts: NA
Location:  40.7567°N, 77.488°W
Report Text: KUNV 270435Z AUTO 00000KT 10SM OVC042 00/M02 A2996 RMK AO2 T10031023
Loading
Personal Weather Stations






























Interactive Weather Map New forecast layout! Learn more

10-Day Weather Forecast

Advertisements
Track Severe Weather on mobile